This is the latest recevied weather packets stored in our database for station/object PA3DZX-13. If no packets are shown the sender has not sent any weather packets the latest 10 day(s).
| Time | Temp. | Humidity | Pressure | Rain* | Wind** | Luminosity | Snow |
|---|---|---|---|---|---|---|---|
| 1788379737 | 15.56° C | 83% | 1019.4 hPa | 0 mm | - | - | - |
| 1788378836 | 16.67° C | 83% | 1019.4 hPa | 0 mm | - | - | - |
| 1788377935 | 15.56° C | 84% | 1019.5 hPa | 0 mm | - | - | - |
| 1788377035 | 16.67° C | 83% | 1019.5 hPa | 0 mm | - | - | - |
| 1788376135 | 16.67° C | 82% | 1019.6 hPa | 0 mm | - | - | - |
| 1788375235 | 16.67° C | 78% | 1019.6 hPa | 0.51 mm | - | - | - |
| 1788374335 | 17.78° C | 74% | 1019.6 hPa | 0 mm | - | - | - |
| 1788373435 | 16.67° C | 75% | 1019.4 hPa | 0 mm | - | - | - |
| 1788372534 | 17.78° C | 72% | 1019.2 hPa | 0 mm | - | - | - |
| 1788371634 | 17.78° C | 72% | 1019.2 hPa | 0 mm | - | - | - |
| 1788370734 | 17.78° C | 69% | 1019.2 hPa | 0 mm | - | - | - |
| 1788369833 | 17.78° C | 69% | 1019.3 hPa | 0 mm | - | - | - |
| 1788368933 | 18.89° C | 64% | 1019.2 hPa | 0 mm | - | - | - |
| 1788368032 | 20° C | 58% | 1019.2 hPa | 0 mm | - | - | - |
| 1788367132 | 18.89° C | 59% | 1019.4 hPa | 0 mm | - | - | - |
| 1788366232 | 18.89° C | 61% | 1019.4 hPa | 0 mm | - | - | - |
| 1788365330 | 17.78° C | 64% | 1019.6 hPa | 0 mm | - | - | - |
| 1788364430 | 17.78° C | 61% | 1019.6 hPa | 0 mm | - | - | - |
| 1788363529 | 17.78° C | 61% | 1019.6 hPa | 0 mm | - | - | - |
| 1788362628 | 17.78° C | 62% | 1019.9 hPa | 0 mm | - | - | - |
| 1788361728 | 18.89° C | 64% | 1019.9 hPa | 0 mm | - | - | - |
| 1788360828 | 18.89° C | 63% | 1019.8 hPa | 0 mm | - | - | - |
| 1788359927 | 20° C | 59% | 1019.6 hPa | 0 mm | - | - | - |
| 1788359026 | 20.56° C | 62% | 1019.4 hPa | 0 mm | - | - | - |
| 1788358125 | 20.56° C | 60% | 1019.6 hPa | 0 mm | - | - | - |
* Rain latest hour (hover to see other rain measurements)
** Current wind speed in m/s (hover to see current wind gust speed)